Time;durP1;ratioP1;P1;durP2;ratioP2;P2;SDS_P1;SDS_P2;PMS_P1;PMS_P2;Temp;Humidity;BMP_temperature;BMP_pressure;BME280_temperature;BME280_humidity;BME280_pressure;Samples;Min_cycle;Max_cycle;Signal;HPM_P1;HPM_P2
2022/07/16 00:02:51;;;;;;;2.92;1.77;;;15.90;99.90;;;;;;5029684;28;20050;-72
2022/07/16 00:05:16;;;;;;;2.92;1.75;;;15.80;99.90;;;;;;5043671;28;20637;-72
2022/07/16 00:07:42;;;;;;;2.40;1.75;;;15.80;99.90;;;;;;5033171;28;20037;-72
2022/07/16 00:10:08;;;;;;;3.60;1.90;;;15.80;99.90;;;;;;5032827;28;20122;-72
2022/07/16 00:12:34;;;;;;;2.83;1.77;;;15.80;99.90;;;;;;5032773;28;20068;-72
2022/07/16 00:15:00;;;;;;;2.78;1.60;;;15.80;99.90;;;;;;5057020;28;20102;-71
2022/07/16 00:17:25;;;;;;;3.28;1.80;;;15.80;99.90;;;;;;5033266;28;20437;-71
2022/07/16 00:19:51;;;;;;;4.35;1.73;;;15.90;99.90;;;;;;5032940;28;20094;-71
2022/07/16 00:22:16;;;;;;;3.75;1.80;;;15.90;99.90;;;;;;5031475;28;20376;-72
2022/07/16 00:24:42;;;;;;;1.70;1.55;;;16.00;99.90;;;;;;5032445;28;20064;-72
2022/07/16 00:27:07;;;;;;;2.50;1.85;;;16.00;99.90;;;;;;5066457;28;20052;-72
2022/07/16 00:29:33;;;;;;;2.65;1.50;;;16.00;99.90;;;;;;5034210;28;20044;-72
2022/07/16 00:31:59;;;;;;;2.05;1.80;;;16.10;99.90;;;;;;5034966;28;20461;-71
2022/07/16 00:34:24;;;;;;;3.15;2.00;;;16.10;99.90;;;;;;5051105;28;20037;-72
2022/07/16 00:36:50;;;;;;;4.10;1.80;;;16.10;99.90;;;;;;5051934;28;20124;-71
2022/07/16 00:39:17;;;;;;;2.83;1.40;;;16.20;99.90;;;;;;5027287;28;20052;-72
2022/07/16 00:41:45;;;;;;;2.22;1.73;;;16.20;99.90;;;;;;5034312;28;20163;-71
2022/07/16 00:44:14;;;;;;;2.92;1.88;;;16.20;99.90;;;;;;5017367;28;20055;-71
2022/07/16 00:46:40;;;;;;;2.55;1.90;;;16.30;99.90;;;;;;5010797;28;20029;-71
2022/07/16 00:49:07;;;;;;;4.47;1.73;;;16.30;99.90;;;;;;5043782;28;20598;-72
2022/07/16 00:51:34;;;;;;;2.33;1.80;;;16.30;99.90;;;;;;5051324;28;20643;-72
2022/07/16 00:54:01;;;;;;;2.67;1.58;;;16.30;99.90;;;;;;5031859;28;20049;-72
2022/07/16 00:56:27;;;;;;;3.25;1.80;;;16.30;99.90;;;;;;5021683;28;20414;-72
2022/07/16 00:58:54;;;;;;;3.22;1.70;;;16.30;99.90;;;;;;5020580;28;20091;-71
2022/07/16 01:01:20;;;;;;;3.10;1.60;;;16.30;99.90;;;;;;5034846;28;20048;-71
2022/07/16 01:03:46;;;;;;;2.80;1.55;;;16.30;99.90;;;;;;5032195;28;20036;-73
2022/07/16 01:06:13;;;;;;;3.13;1.70;;;16.40;99.90;;;;;;5035405;28;20072;-71
2022/07/16 01:08:41;;;;;;;3.50;2.20;;;16.40;99.90;;;;;;5035152;28;20036;-71
2022/07/16 01:11:09;;;;;;;2.50;1.92;;;16.40;99.90;;;;;;5019699;28;20042;-72
2022/07/16 01:13:37;;;;;;;4.07;2.38;;;16.40;99.90;;;;;;5000223;28;20084;-72
2022/07/16 01:16:02;;;;;;;3.38;2.50;;;16.40;99.90;;;;;;5028552;28;20442;-72
2022/07/16 01:18:28;;;;;;;4.30;2.70;;;16.40;99.90;;;;;;5051025;28;20112;-72
2022/07/16 01:20:54;;;;;;;5.07;3.38;;;16.30;99.90;;;;;;5031853;28;20119;-72
2022/07/16 01:23:24;;;;;;;5.82;2.78;;;16.30;99.90;;;;;;5034340;28;20123;-72
2022/07/16 01:25:50;;;;;;;4.00;2.38;;;16.30;99.90;;;;;;5051112;28;20041;-72
2022/07/16 01:28:16;;;;;;;4.18;2.40;;;16.20;99.90;;;;;;5034520;28;20037;-72
2022/07/16 01:30:45;;;;;;;3.50;3.10;;;16.20;99.90;;;;;;5034891;28;20037;-72
2022/07/16 01:33:21;;;;;;;3.72;2.70;;;16.10;99.90;;;;;;5051689;28;20041;-72
2022/07/16 01:35:48;;;;;;;3.88;2.95;;;16.20;99.90;;;;;;5030519;28;20394;-72
2022/07/16 01:38:13;;;;;;;6.50;2.33;;;16.20;99.90;;;;;;5032389;28;20045;-72
2022/07/16 01:40:39;;;;;;;4.40;2.58;;;16.10;99.90;;;;;;5034301;28;20047;-71
2022/07/16 01:43:16;;;;;;;2.83;2.53;;;16.10;99.90;;;;;;5031132;28;20038;-71
2022/07/16 01:45:41;;;;;;;5.38;2.55;;;16.10;99.90;;;;;;5015433;28;20037;-71
2022/07/16 01:48:07;;;;;;;3.67;2.70;;;16.00;99.90;;;;;;5026377;28;20041;-72
2022/07/16 01:50:32;;;;;;;5.22;2.58;;;16.00;99.90;;;;;;5035150;28;20043;-72
2022/07/16 01:52:58;;;;;;;3.22;2.10;;;16.00;99.90;;;;;;5052428;23;20044;-72
2022/07/16 01:55:23;;;;;;;4.22;2.20;;;15.90;99.90;;;;;;5064771;28;20068;-72
2022/07/16 01:57:49;;;;;;;2.50;2.20;;;15.90;99.90;;;;;;5059648;28;20037;-72
2022/07/16 02:00:15;;;;;;;3.42;2.20;;;15.90;99.90;;;;;;5049347;28;20041;-72
2022/07/16 02:02:40;;;;;;;3.30;2.20;;;16.00;99.90;;;;;;5048258;28;20076;-72
2022/07/16 02:05:06;;;;;;;5.43;2.13;;;16.00;99.90;;;;;;5050200;28;20045;-71
2022/07/16 02:07:32;;;;;;;3.13;2.10;;;15.90;99.90;;;;;;5034261;28;20102;-71
2022/07/16 02:09:57;;;;;;;3.65;2.17;;;15.90;99.90;;;;;;5052989;28;20119;-72
2022/07/16 02:12:23;;;;;;;3.03;2.08;;;15.90;99.90;;;;;;5048791;28;21699;-71
2022/07/16 02:14:48;;;;;;;2.90;2.20;;;15.80;99.90;;;;;;5047993;28;20036;-72
2022/07/16 02:17:14;;;;;;;3.03;2.00;;;15.80;99.90;;;;;;5049991;28;20052;-72
2022/07/16 02:19:40;;;;;;;4.53;2.20;;;15.80;99.90;;;;;;5048627;28;20458;-73
2022/07/16 02:22:07;;;;;;;3.20;2.10;;;15.80;99.90;;;;;;5050828;28;20067;-71
2022/07/16 02:24:32;;;;;;;3.20;1.88;;;15.80;99.90;;;;;;5051932;28;20122;-71
2022/07/16 02:26:59;;;;;;;3.97;2.05;;;15.80;99.90;;;;;;5053075;28;20474;-72
2022/07/16 02:29:24;;;;;;;3.00;2.08;;;15.70;99.90;;;;;;5049161;28;20052;-72
2022/07/16 02:31:50;;;;;;;3.40;2.28;;;15.70;99.90;;;;;;5047252;28;20033;-72
2022/07/16 02:34:16;;;;;;;3.08;1.80;;;15.70;99.90;;;;;;5048629;28;20266;-72
2022/07/16 02:36:41;;;;;;;4.55;2.00;;;15.70;99.90;;;;;;5044821;28;20489;-71
2022/07/16 02:39:07;;;;;;;2.63;1.98;;;15.70;99.90;;;;;;5046772;28;20053;-72
2022/07/16 02:41:33;;;;;;;3.33;1.70;;;15.70;99.90;;;;;;5048371;28;20083;-72
2022/07/16 02:43:58;;;;;;;4.57;1.95;;;15.60;99.90;;;;;;5049637;28;20044;-72
2022/07/16 02:46:24;;;;;;;4.53;2.13;;;15.60;99.90;;;;;;5030973;28;20457;-72
2022/07/16 02:48:50;;;;;;;4.22;1.90;;;15.60;99.90;;;;;;5048388;28;20033;-72
2022/07/16 02:51:15;;;;;;;3.67;1.85;;;15.60;99.90;;;;;;5031721;28;20037;-72
2022/07/16 02:53:41;;;;;;;3.30;2.00;;;15.50;99.90;;;;;;5026790;28;20073;-72
2022/07/16 02:56:07;;;;;;;5.13;2.45;;;15.50;99.90;;;;;;5029673;28;20664;-72
2022/07/16 02:58:32;;;;;;;6.15;2.30;;;15.50;99.90;;;;;;5046821;28;20041;-72
2022/07/16 03:00:58;;;;;;;4.47;1.92;;;15.50;99.90;;;;;;5048623;28;20067;-72
2022/07/16 03:03:23;;;;;;;4.75;2.13;;;15.50;99.90;;;;;;5048066;28;20442;-71
2022/07/16 03:05:49;;;;;;;6.43;2.28;;;15.40;99.90;;;;;;5049489;28;20036;-71
2022/07/16 03:08:14;;;;;;;7.38;2.38;;;15.40;99.90;;;;;;5031594;28;20047;-72
2022/07/16 03:10:40;;;;;;;4.65;2.15;;;15.40;99.90;;;;;;5043173;28;20064;-71
2022/07/16 03:13:08;;;;;;;3.90;1.88;;;15.30;99.90;;;;;;5049234;28;20044;-72
2022/07/16 03:15:34;;;;;;;5.03;2.28;;;15.30;99.90;;;;;;5047331;28;20037;-72
2022/07/16 03:17:59;;;;;;;7.68;2.50;;;15.20;99.90;;;;;;5031902;28;20048;-71
2022/07/16 03:20:25;;;;;;;3.88;1.88;;;15.20;99.90;;;;;;5060026;28;20083;-71
2022/07/16 03:22:50;;;;;;;3.90;2.30;;;15.10;99.90;;;;;;5045670;28;20070;-71
2022/07/16 03:25:17;;;;;;;3.90;2.03;;;15.00;99.90;;;;;;5048821;28;20029;-71
2022/07/16 03:27:43;;;;;;;5.80;2.33;;;15.00;99.90;;;;;;5045922;28;20041;-71
2022/07/16 03:30:09;;;;;;;7.22;2.65;;;15.00;99.90;;;;;;5047262;28;20414;-72
2022/07/16 03:32:35;;;;;;;6.47;2.65;;;14.90;99.90;;;;;;5048244;28;20367;-71
2022/07/16 03:35:07;;;;;;;4.30;2.30;;;14.80;99.90;;;;;;5047690;28;20044;-71
2022/07/16 03:37:33;;;;;;;6.43;2.40;;;14.80;99.90;;;;;;5047082;28;20048;-72
2022/07/16 03:39:59;;;;;;;5.05;2.05;;;14.80;99.90;;;;;;5048541;28;20080;-72
2022/07/16 03:42:25;;;;;;;6.18;2.30;;;14.70;99.90;;;;;;5048416;28;20041;-72
2022/07/16 03:44:50;;;;;;;5.38;2.00;;;14.70;99.90;;;;;;5045448;28;20375;-71
2022/07/16 03:47:16;;;;;;;6.47;2.50;;;14.70;99.90;;;;;;5047926;28;20557;-71
2022/07/16 03:49:41;;;;;;;3.28;1.85;;;14.60;99.90;;;;;;5032119;28;20052;-71
2022/07/16 03:52:07;;;;;;;6.43;2.00;;;14.60;99.90;;;;;;5048658;28;20057;-71
2022/07/16 03:54:33;;;;;;;4.72;2.38;;;14.60;99.90;;;;;;5048992;28;20174;-71
2022/07/16 03:56:59;;;;;;;4.13;2.08;;;14.60;99.90;;;;;;5049356;28;20128;-71
2022/07/16 03:59:24;;;;;;;4.40;2.25;;;14.60;99.90;;;;;;5051550;28;20045;-72
2022/07/16 04:01:50;;;;;;;3.28;2.08;;;14.60;99.90;;;;;;5047285;28;20463;-72
2022/07/16 04:04:16;;;;;;;3.25;1.80;;;14.50;99.90;;;;;;5050304;28;20100;-72
2022/07/16 04:06:41;;;;;;;3.05;1.80;;;14.50;99.90;;;;;;5040235;28;20094;-72
2022/07/16 04:09:07;;;;;;;6.72;2.20;;;14.60;99.90;;;;;;5064834;28;20482;-71
2022/07/16 04:11:32;;;;;;;2.90;1.73;;;14.70;99.90;;;;;;5036553;28;20029;-71
2022/07/16 04:13:58;;;;;;;4.25;1.98;;;14.70;99.90;;;;;;5053247;28;20041;-72
2022/07/16 04:16:24;;;;;;;3.58;1.90;;;14.80;99.90;;;;;;5050894;28;20122;-72
2022/07/16 04:18:49;;;;;;;3.22;1.73;;;14.80;99.90;;;;;;5054664;28;20051;-71
2022/07/16 04:21:15;;;;;;;4.85;2.00;;;14.70;99.90;;;;;;5053181;28;20371;-71
2022/07/16 04:23:40;;;;;;;4.97;2.40;;;14.70;99.90;;;;;;5052495;28;20063;-72
2022/07/16 04:26:06;;;;;;;3.92;1.83;;;14.70;99.90;;;;;;5052614;28;20095;-72
2022/07/16 04:28:32;;;;;;;5.13;2.10;;;14.70;99.90;;;;;;5053103;28;20068;-71
2022/07/16 04:30:57;;;;;;;5.35;1.98;;;14.70;99.90;;;;;;5052911;28;20124;-71
2022/07/16 04:33:23;;;;;;;5.35;2.20;;;14.60;99.90;;;;;;5052846;28;20470;-72
2022/07/16 04:35:49;;;;;;;3.50;1.60;;;14.60;99.90;;;;;;5050541;28;20128;-70
2022/07/16 04:38:17;;;;;;;5.35;2.30;;;14.60;99.90;;;;;;5032574;28;20098;-71
2022/07/16 04:40:42;;;;;;;6.00;2.08;;;14.60;99.90;;;;;;5052842;28;20056;-71
2022/07/16 04:43:08;;;;;;;6.85;2.25;;;14.60;99.90;;;;;;5049776;28;20033;-71
2022/07/16 04:45:33;;;;;;;4.07;2.00;;;14.60;99.90;;;;;;5052965;28;20045;-70
2022/07/16 04:47:59;;;;;;;7.47;1.85;;;14.60;99.90;;;;;;5052023;28;20896;-72
2022/07/16 04:50:24;;;;;;;5.32;1.83;;;14.60;99.90;;;;;;5052591;28;20033;-71
2022/07/16 04:52:50;;;;;;;3.53;1.98;;;14.70;99.90;;;;;;5049642;28;20802;-71
2022/07/16 04:55:15;;;;;;;4.40;1.92;;;14.70;99.90;;;;;;5036018;28;20040;-71
2022/07/16 04:57:41;;;;;;;3.00;1.65;;;14.80;99.90;;;;;;5053983;28;20418;-71
2022/07/16 05:00:07;;;;;;;6.13;1.88;;;15.00;99.90;;;;;;5052332;28;20041;-72
2022/07/16 05:05:20;;;;;;;5.70;1.80;;;15.30;99.90;;;;;;5049899;28;20044;-72
2022/07/16 05:07:47;;;;;;;7.50;1.95;;;15.30;99.90;;;;;;5034211;28;20128;-71
2022/07/16 05:10:12;;;;;;;5.53;1.65;;;15.40;99.90;;;;;;5049091;28;20037;-72
2022/07/16 05:12:38;;;;;;;5.55;1.80;;;15.40;99.90;;;;;;5034731;28;20055;-72
2022/07/16 05:15:04;;;;;;;4.82;1.63;;;15.50;99.90;;;;;;5052859;28;20494;-71
2022/07/16 05:17:29;;;;;;;4.70;1.55;;;15.40;99.90;;;;;;5051975;28;20048;-72
2022/07/16 05:19:55;;;;;;;6.05;1.80;;;15.50;99.90;;;;;;5052337;28;20045;-72
2022/07/16 05:22:20;;;;;;;7.22;2.25;;;15.50;99.90;;;;;;5051888;28;20125;-72
2022/07/16 05:24:46;;;;;;;6.57;1.98;;;15.40;99.90;;;;;;5051894;28;20133;-72
2022/07/16 05:27:12;;;;;;;5.45;1.60;;;15.50;99.90;;;;;;5049913;28;20041;-72
2022/07/16 05:29:37;;;;;;;3.83;1.65;;;15.60;99.90;;;;;;5052021;28;20540;-72
2022/07/16 05:32:04;;;;;;;7.25;1.65;;;15.70;99.90;;;;;;5051043;28;20072;-72
2022/07/16 05:34:29;;;;;;;7.80;1.80;;;15.90;99.90;;;;;;5050823;28;20573;-72
2022/07/16 05:36:55;;;;;;;4.03;1.40;;;15.90;99.90;;;;;;5050318;28;20124;-72
2022/07/16 05:39:20;;;;;;;6.80;1.75;;;16.00;99.90;;;;;;5049045;28;20486;-72
2022/07/16 05:41:46;;;;;;;6.50;1.35;;;16.00;99.90;;;;;;5050582;28;20430;-72
2022/07/16 05:44:11;;;;;;;4.85;1.50;;;16.10;99.90;;;;;;5049081;28;20879;-72
2022/07/16 05:46:37;;;;;;;6.45;1.50;;;16.10;99.90;;;;;;5034440;28;20135;-72
2022/07/16 05:49:02;;;;;;;5.60;1.67;;;16.20;99.90;;;;;;5034025;28;20041;-72
2022/07/16 05:51:28;;;;;;;7.05;1.50;;;16.20;99.90;;;;;;5048566;28;20099;-73
2022/07/16 05:53:54;;;;;;;5.15;1.10;;;16.30;99.90;;;;;;5044298;28;20491;-73
2022/07/16 05:56:19;;;;;;;5.80;1.23;;;16.30;99.90;;;;;;5038747;28;20043;-72
2022/07/16 05:58:45;;;;;;;4.13;0.90;;;16.90;99.90;;;;;;5036573;28;20069;-72
2022/07/16 06:01:10;;;;;;;4.88;1.50;;;18.70;99.90;;;;;;5046958;28;20047;-73
2022/07/16 06:03:40;;;;;;;5.82;1.58;;;20.20;99.90;;;;;;5050285;28;20041;-73
2022/07/16 06:06:06;;;;;;;4.18;0.88;;;21.40;98.20;;;;;;5039200;28;20049;-73
2022/07/16 06:08:31;;;;;;;3.45;1.10;;;22.40;96.80;;;;;;5042846;28;20037;-73
2022/07/16 06:10:58;;;;;;;3.13;1.00;;;;;;;;;;5050036;28;20063;-71
2022/07/16 06:13:24;;;;;;;3.53;1.15;;;24.40;93.10;;;;;;5049784;28;20049;-72
2022/07/16 06:15:50;;;;;;;3.03;1.10;;;24.40;92.40;;;;;;5048408;28;20052;-69
2022/07/16 06:18:15;;;;;;;2.92;1.10;;;25.40;90.90;;;;;;5028328;28;20103;-69
2022/07/16 06:20:41;;;;;;;5.95;1.25;;;26.00;89.40;;;;;;5030843;28;20037;-69
2022/07/16 06:23:06;;;;;;;3.20;1.10;;;26.00;87.30;;;;;;5031181;28;20055;-69
2022/07/16 06:25:32;;;;;;;4.93;1.05;;;26.50;85.30;;;;;;5054148;28;20095;-69
2022/07/16 06:27:58;;;;;;;4.35;0.90;;;26.10;83.80;;;;;;5046893;28;20102;-68
2022/07/16 06:30:24;;;;;;;3.33;0.90;;;26.40;80.50;;;;;;5045629;28;20062;-68
2022/07/16 06:32:50;;;;;;;4.03;1.05;;;26.80;81.30;;;;;;5048433;28;20041;-69
2022/07/16 06:35:15;;;;;;;5.18;1.40;;;27.30;80.70;;;;;;5050728;28;20494;-69
2022/07/16 06:37:41;;;;;;;3.40;0.88;;;27.60;77.40;;;;;;5051539;28;20112;-68
2022/07/16 06:40:08;;;;;;;3.97;1.05;;;27.80;74.10;;;;;;5048821;28;20043;-68
2022/07/16 06:42:34;;;;;;;4.78;1.10;;;27.40;72.00;;;;;;5050536;28;20044;-69
2022/07/16 06:45:00;;;;;;;3.38;1.00;;;27.30;70.30;;;;;;5050419;28;20044;-69
2022/07/16 06:47:26;;;;;;;5.28;1.02;;;27.70;73.70;;;;;;5048224;28;20037;-69
2022/07/16 06:49:52;;;;;;;4.70;1.05;;;27.60;67.50;;;;;;5050196;28;20434;-69
2022/07/16 06:52:18;;;;;;;4.35;0.95;;;28.20;71.80;;;;;;5047744;28;20468;-69
2022/07/16 06:54:44;;;;;;;3.70;1.15;;;28.70;71.00;;;;;;5047845;28;20048;-69
2022/07/16 06:57:09;;;;;;;3.20;0.90;;;28.30;63.80;;;;;;5050410;28;20126;-70
2022/07/16 06:59:37;;;;;;;2.60;0.90;;;28.40;67.30;;;;;;5048856;28;20052;-69
2022/07/16 07:02:03;;;;;;;1.33;0.50;;;27.60;64.50;;;;;;5051850;28;20037;-69
2022/07/16 07:04:28;;;;;;;2.95;0.95;;;27.70;61.40;;;;;;5050081;28;20045;-69
2022/07/16 07:06:54;;;;;;;3.10;0.70;;;27.60;64.50;;;;;;5050567;28;20376;-69
2022/07/16 07:09:20;;;;;;;2.60;0.93;;;27.80;64.90;;;;;;5050170;28;20047;-69
2022/07/16 07:11:45;;;;;;;2.85;0.70;;;27.80;64.70;;;;;;5048316;28;20056;-70
2022/07/16 07:14:11;;;;;;;3.83;0.70;;;26.90;63.30;;;;;;5049609;28;20037;-69
2022/07/16 07:16:37;;;;;;;2.65;0.90;;;26.20;66.50;;;;;;5049874;28;20037;-70
2022/07/16 07:19:03;;;;;;;3.17;0.80;;;25.80;60.00;;;;;;5048319;28;20049;-68
2022/07/16 07:21:29;;;;;;;2.22;0.73;;;25.10;64.90;;;;;;5046526;28;20041;-69
2022/07/16 07:23:55;;;;;;;4.55;0.90;;;24.40;67.80;;;;;;5047212;28;20033;-69
2022/07/16 07:26:21;;;;;;;1.60;0.50;;;23.60;68.30;;;;;;5047492;28;20033;-70
2022/07/16 07:28:46;;;;;;;3.33;0.80;;;23.10;70.10;;;;;;5047572;28;20083;-69
2022/07/16 07:31:12;;;;;;;3.72;1.00;;;24.20;71.80;;;;;;5049402;28;20044;-70
2022/07/16 07:33:38;;;;;;;2.75;0.98;;;24.60;67.60;;;;;;5048554;28;20174;-70
2022/07/16 07:36:04;;;;;;;2.13;0.68;;;24.60;69.30;;;;;;5050243;28;20114;-70
2022/07/16 07:38:29;;;;;;;3.15;0.95;;;25.10;68.60;;;;;;5050887;28;20033;-67
2022/07/16 07:40:55;;;;;;;4.45;0.88;;;24.90;67.80;;;;;;5045296;28;20043;-69
2022/07/16 07:43:21;;;;;;;3.10;0.85;;;25.20;65.30;;;;;;5051203;28;20048;-70
2022/07/16 07:45:46;;;;;;;3.10;0.93;;;25.10;67.90;;;;;;5048305;28;20037;-70
2022/07/16 07:48:13;;;;;;;2.70;1.20;;;24.40;64.40;;;;;;5051108;28;20037;-69
2022/07/16 07:50:38;;;;;;;4.82;1.13;;;23.90;67.50;;;;;;5048928;28;20033;-67
2022/07/16 07:53:04;;;;;;;2.67;0.90;;;24.10;67.50;;;;;;5021824;22;20056;-69
2022/07/16 07:55:33;;;;;;;3.40;0.90;;;24.20;65.90;;;;;;5008863;28;20128;-67
2022/07/16 07:57:59;;;;;;;4.00;0.73;;;24.20;66.60;;;;;;4986447;28;20073;-69
2022/07/16 08:00:25;;;;;;;2.97;0.90;;;24.20;65.00;;;;;;4963105;28;20263;-69
2022/07/16 08:02:51;;;;;;;1.98;0.90;;;24.30;65.30;;;;;;4966378;28;20046;-69
2022/07/16 08:05:17;;;;;;;3.80;0.70;;;25.40;67.20;;;;;;4988007;28;20045;-69
2022/07/16 08:07:44;;;;;;;2.63;0.68;;;26.10;67.30;;;;;;4981445;28;20053;-70
2022/07/16 08:10:10;;;;;;;1.95;0.65;;;26.00;63.00;;;;;;4982753;28;20153;-70
2022/07/16 08:12:37;;;;;;;2.42;0.80;;;25.70;63.10;;;;;;4983161;28;20431;-69
2022/07/16 08:15:04;;;;;;;2.83;0.70;;;24.50;64.60;;;;;;4982538;28;20125;-70
2022/07/16 08:17:29;;;;;;;2.83;0.65;;;24.10;68.70;;;;;;5000030;28;20035;-70
2022/07/16 08:19:55;;;;;;;4.70;1.00;;;22.70;68.40;;;;;;4987885;28;20050;-69
2022/07/16 08:22:21;;;;;;;2.55;0.75;;;22.10;68.90;;;;;;4973212;28;20034;-70
2022/07/16 08:27:30;;;;;;;4.47;0.93;;;22.00;73.60;;;;;;4990042;28;20053;-69
2022/07/16 08:29:56;;;;;;;3.72;0.80;;;21.80;71.50;;;;;;4991281;28;20034;-69
2022/07/16 08:32:22;;;;;;;3.88;0.70;;;21.80;68.10;;;;;;4971797;28;20088;-69
2022/07/16 08:34:47;;;;;;;2.10;0.90;;;22.20;71.80;;;;;;4987275;28;20050;-70
2022/07/16 08:37:13;;;;;;;2.67;0.90;;;21.90;70.10;;;;;;4987513;28;20038;-70
2022/07/16 08:39:43;;;;;;;5.00;0.90;;;21.30;72.90;;;;;;4989473;28;20046;-70
2022/07/16 08:42:11;;;;;;;3.80;0.70;;;21.10;73.20;;;;;;4989414;28;20038;-70
2022/07/16 08:44:39;;;;;;;3.67;1.30;;;20.60;72.30;;;;;;5006139;28;20045;-69
2022/07/16 08:47:06;;;;;;;3.17;0.82;;;;;;;;;;4989859;28;20045;-69
2022/07/16 08:49:32;;;;;;;3.70;1.10;;;20.50;73.90;;;;;;4989202;28;20050;-69
2022/07/16 08:52:00;;;;;;;2.88;0.90;;;20.50;74.90;;;;;;4994180;28;20490;-68
2022/07/16 08:54:28;;;;;;;6.90;1.33;;;20.70;77.80;;;;;;5008340;28;20049;-69
2022/07/16 08:56:54;;;;;;;5.32;0.90;;;21.10;76.70;;;;;;5009476;28;20046;-69
2022/07/16 08:59:19;;;;;;;4.38;0.80;;;21.40;75.50;;;;;;5008441;28;20377;-69
2022/07/16 09:01:45;;;;;;;4.38;0.90;;;21.70;76.30;;;;;;4993427;28;20099;-69
2022/07/16 09:04:11;;;;;;;3.22;0.98;;;21.70;73.70;;;;;;5013468;28;20041;-69
2022/07/16 09:06:36;;;;;;;4.25;1.02;;;21.20;73.70;;;;;;5014050;28;20042;-69
2022/07/16 09:09:02;;;;;;;5.22;1.00;;;21.00;74.50;;;;;;5012817;28;20125;-68
2022/07/16 09:11:31;;;;;;;3.08;0.68;;;20.80;77.80;;;;;;5009884;28;20046;-68
2022/07/16 09:14:09;;;;;;;4.85;1.00;;;20.60;76.20;;;;;;5012749;28;20060;-68
2022/07/16 09:16:40;;;;;;;4.65;1.10;;;20.40;77.30;;;;;;5001068;28;20369;-67
2022/07/16 09:19:10;;;;;;;5.05;0.98;;;20.20;77.90;;;;;;5012608;28;20046;-68
2022/07/16 09:21:37;;;;;;;4.30;1.13;;;20.30;79.90;;;;;;5010631;28;20095;-68
2022/07/16 09:24:04;;;;;;;5.63;1.35;;;20.30;81.30;;;;;;5006084;28;20580;-67
2022/07/16 09:26:30;;;;;;;5.20;1.35;;;20.00;79.70;;;;;;5001888;28;20034;-68
2022/07/16 09:29:00;;;;;;;4.07;1.00;;;19.60;80.10;;;;;;5007602;28;20641;-68
2022/07/16 09:31:41;;;;;;;5.25;1.13;;;19.80;80.40;;;;;;5021204;28;20044;-68
2022/07/16 09:34:12;;;;;;;3.95;1.10;;;20.20;81.10;;;;;;5007843;28;20399;-68
2022/07/16 09:36:54;;;;;;;5.78;1.10;;;20.60;80.30;;;;;;5025148;28;20467;-68
2022/07/16 09:39:20;;;;;;;5.22;1.20;;;20.70;80.40;;;;;;5020598;28;20045;-68
2022/07/16 09:41:47;;;;;;;2.78;1.00;;;20.60;76.30;;;;;;5009912;28;20084;-69
2022/07/16 09:44:23;;;;;;;3.40;0.75;;;20.70;79.40;;;;;;5009509;28;20049;-68
2022/07/16 09:47:06;;;;;;;1.48;0.70;;;21.10;74.10;;;;;;5007761;28;20042;-68
2022/07/16 09:49:36;;;;;;;2.63;1.00;;;21.00;72.20;;;;;;5007153;28;20045;-68
2022/07/16 09:52:06;;;;;;;2.63;1.00;;;21.30;76.00;;;;;;5005754;28;20057;-69
2022/07/16 09:54:37;;;;;;;4.47;1.00;;;21.20;72.60;;;;;;5008142;28;20050;-69
2022/07/16 09:57:11;;;;;;;5.45;1.40;;;21.10;75.30;;;;;;5006336;28;20038;-69
2022/07/16 09:59:38;;;;;;;3.45;0.82;;;21.10;75.40;;;;;;5008196;28;20052;-68
2022/07/16 10:02:04;;;;;;;3.72;0.85;;;21.20;75.00;;;;;;5025066;28;20042;-69
2022/07/16 10:04:30;;;;;;;3.22;0.80;;;21.20;70.90;;;;;;4980135;28;20054;-68
2022/07/16 10:06:57;;;;;;;3.78;0.90;;;21.60;71.30;;;;;;5010281;28;20045;-69
2022/07/16 10:09:23;;;;;;;2.95;0.80;;;21.90;72.40;;;;;;5025493;28;20037;-68
2022/07/16 10:11:51;;;;;;;3.05;1.10;;;22.00;70.60;;;;;;5026624;28;20133;-67
2022/07/16 10:14:17;;;;;;;3.88;0.95;;;22.20;73.70;;;;;;5009696;28;20080;-67
2022/07/16 10:16:47;;;;;;;2.28;1.08;;;22.10;70.40;;;;;;5005112;28;20566;-67
2022/07/16 10:19:14;;;;;;;2.83;1.02;;;22.30;73.40;;;;;;5008937;28;20042;-66
2022/07/16 10:21:40;;;;;;;3.85;0.80;;;22.30;72.90;;;;;;5020371;28;20077;-68
2022/07/16 10:24:07;;;;;;;3.90;0.93;;;22.20;71.00;;;;;;5004488;28;20424;-68
2022/07/16 10:26:34;;;;;;;3.95;0.98;;;22.00;69.40;;;;;;5009432;28;20034;-68
2022/07/16 10:29:00;;;;;;;4.97;1.30;;;21.10;68.70;;;;;;5007063;28;22284;-68
2022/07/16 10:31:32;;;;;;;7.32;1.02;;;21.20;71.60;;;;;;5018062;28;20046;-65
2022/07/16 10:34:12;;;;;;;;;;;21.50;72.90;;;;;;5006106;28;20049;-67
2022/07/16 10:36:50;;;;;;;30.42;2.13;;;21.50;74.30;;;;;;5009762;28;19974;-66
2022/07/16 10:39:16;;;;;;;3.38;0.88;;;21.20;70.60;;;;;;5005491;28;20108;-66
2022/07/16 10:41:52;;;;;;;24.92;2.33;;;21.00;68.50;;;;;;5008569;28;20038;-67
2022/07/16 10:44:19;;;;;;;2.85;0.70;;;21.40;74.10;;;;;;5005036;28;20121;-66
2022/07/16 10:46:58;;;;;;;2.90;0.98;;;21.80;73.90;;;;;;5010051;28;20025;-66
2022/07/16 10:49:25;;;;;;;2.67;0.85;;;21.60;71.40;;;;;;4989734;28;20042;-67
2022/07/16 10:52:03;;;;;;;2.63;0.90;;;22.00;72.00;;;;;;5014904;28;20050;-67
2022/07/16 10:54:30;;;;;;;3.17;0.85;;;21.70;70.10;;;;;;5001949;28;20141;-67
2022/07/16 10:56:59;;;;;;;2.90;1.05;;;21.80;69.70;;;;;;5011492;28;20037;-66
2022/07/16 10:59:28;;;;;;;2.58;0.95;;;21.60;70.90;;;;;;5007731;28;20053;-66
2022/07/16 11:01:56;;;;;;;5.07;1.00;;;21.60;68.50;;;;;;5009076;28;20056;-67
2022/07/16 11:04:36;;;;;;;2.63;0.77;;;21.70;71.80;;;;;;5005786;28;20049;-67
2022/07/16 11:07:11;;;;;;;3.17;0.90;;;21.40;69.20;;;;;;5020292;28;20041;-66
2022/07/16 11:09:40;;;;;;;3.75;0.80;;;21.50;71.60;;;;;;5001906;28;20427;-67
2022/07/16 11:12:12;;;;;;;2.60;0.80;;;21.90;70.90;;;;;;5006453;28;20038;-66
2022/07/16 11:14:38;;;;;;;;;;;21.60;68.10;;;;;;5016200;28;20124;-67
2022/07/16 11:17:04;;;;;;;5.80;1.23;;;22.20;71.50;;;;;;5007672;28;20656;-67
2022/07/16 11:19:33;;;;;;;4.97;0.77;;;22.20;67.80;;;;;;5005958;28;20052;-67
2022/07/16 11:22:01;;;;;;;3.35;0.90;;;22.10;66.90;;;;;;5014017;28;20133;-67
2022/07/16 11:24:28;;;;;;;3.72;1.13;;;22.40;70.20;;;;;;4990289;28;20050;-67
2022/07/16 11:26:55;;;;;;;4.82;1.23;;;22.00;70.30;;;;;;5007962;28;20081;-67
2022/07/16 11:29:24;;;;;;;5.30;1.25;;;22.00;72.90;;;;;;4990892;28;20046;-67
2022/07/16 11:31:50;;;;;;;2.53;0.70;;;22.20;69.80;;;;;;5019243;28;20105;-66
2022/07/16 11:34:18;;;;;;;4.80;1.00;;;22.30;71.40;;;;;;5004108;28;20050;-67
2022/07/16 11:36:47;;;;;;;3.47;0.98;;;22.20;66.10;;;;;;5001883;28;20491;-66
2022/07/16 11:39:17;;;;;;;4.78;1.00;;;22.40;69.80;;;;;;5013843;28;20060;-67
2022/07/16 11:41:44;;;;;;;1.83;0.73;;;22.30;70.70;;;;;;5008542;28;20398;-66
2022/07/16 11:44:16;;;;;;;5.07;1.27;;;22.60;68.90;;;;;;5006773;28;20104;-67
2022/07/16 11:46:43;;;;;;;;;;;22.00;64.30;;;;;;5006751;28;20058;-67
2022/07/16 11:49:09;;;;;;;4.15;0.90;;;22.30;74.40;;;;;;5008395;28;19917;-66
2022/07/16 11:51:40;;;;;;;7.78;1.83;;;22.60;72.90;;;;;;5020505;28;20037;-67
2022/07/16 11:54:06;;;;;;;3.28;1.00;;;22.80;72.80;;;;;;5031103;28;20056;-67
2022/07/16 11:56:37;;;;;;;2.47;1.20;;;22.50;67.10;;;;;;5020861;28;20057;-67
2022/07/16 11:59:20;;;;;;;3.03;0.83;;;22.10;69.90;;;;;;5028874;28;20372;-67
2022/07/16 12:01:47;;;;;;;3.30;0.93;;;21.90;68.70;;;;;;5008846;28;20483;-66
2022/07/16 12:04:14;;;;;;;3.97;1.00;;;21.90;73.20;;;;;;5011483;28;20139;-67
2022/07/16 12:06:46;;;;;;;5.50;0.90;;;21.80;70.50;;;;;;5022314;28;20060;-68
2022/07/16 12:09:12;;;;;;;4.72;0.90;;;21.60;73.30;;;;;;4995280;28;20052;-68
2022/07/16 12:11:38;;;;;;;4.18;0.85;;;21.50;73.20;;;;;;5023348;28;20042;-67
2022/07/16 12:14:03;;;;;;;4.13;1.23;;;21.20;75.90;;;;;;4996136;28;20052;-68
2022/07/16 12:16:29;;;;;;;2.15;0.98;;;21.40;74.40;;;;;;5027474;28;20029;-66
2022/07/16 12:19:13;;;;;;;4.50;0.88;;;21.80;73.70;;;;;;5021546;28;20132;-67
2022/07/16 12:21:39;;;;;;;3.47;1.08;;;22.10;76.10;;;;;;5003149;28;20527;-67
2022/07/16 12:24:09;;;;;;;2.42;0.90;;;21.90;71.30;;;;;;5025511;28;20054;-67
2022/07/16 12:26:37;;;;;;;4.97;1.15;;;22.00;73.40;;;;;;5032213;28;20036;-67
2022/07/16 12:29:04;;;;;;;7.63;1.83;;;22.10;74.10;;;;;;5012831;28;20041;-67
2022/07/16 12:31:30;;;;;;;3.60;1.10;;;22.30;74.80;;;;;;5014806;28;20080;-68
2022/07/16 12:33:58;;;;;;;2.95;1.00;;;22.70;76.00;;;;;;5013270;28;20039;-67
2022/07/16 12:36:31;;;;;;;6.20;1.30;;;22.90;73.90;;;;;;5030453;28;20135;-67
2022/07/16 12:39:00;;;;;;;4.63;1.30;;;22.60;74.30;;;;;;5015073;28;20044;-67
2022/07/16 12:41:39;;;;;;;3.72;1.40;;;22.40;74.60;;;;;;5032700;28;20044;-67
2022/07/16 12:44:08;;;;;;;3.90;1.23;;;22.50;74.90;;;;;;5009511;28;20721;-67
2022/07/16 12:46:49;;;;;;;2.72;0.90;;;22.60;74.50;;;;;;5013384;28;20049;-67
2022/07/16 12:49:27;;;;;;;4.50;1.00;;;22.70;74.30;;;;;;5015530;28;20042;-68
2022/07/16 12:51:56;;;;;;;2.53;1.00;;;22.70;75.40;;;;;;5004033;28;20049;-68
2022/07/16 12:54:23;;;;;;;6.38;1.70;;;22.50;74.80;;;;;;5014442;28;20050;-67